Latest Weather Observations for Cessnock Airport

IDN60801

Issued at 11:35 am EST Monday 22 September 2014 (issued every 30 minutes, with the page automatically refreshed every 10 minutes)

About weather observations | Map of weather stations | Latest weather observations for NSW | Other Formats
Station Details ID: 061260 Name: CESSNOCK AIRPORT AWS Lat: -32.79 Lon: 151.34 Height: 61.0 m
Data from the previous 72 hours. | See also: Recent months at Cessnock Airport
Date/Time
EST
Temp
°C
App
Temp
°C
Dew
Point
Rel
Hum
%
Delta-T
°C
Wind Press
QNH
hPa
Press
MSL
hPa
Rain
since 9 am
mm
Dir
 
Spd
km/h
Gust
km/h
Spd
kts
Gust
kts
22/11:30am 19.1 16.9 7.8 48 5.8 NW 9 15 5 8 1030.3 1030.3 0.0
22/11:00am 18.1 16.7 8.7 54 4.8 ENE 6 9 3 5 1030.8 1030.8 0.0
22/10:30am 17.5 17.1 8.4 55 4.7 CALM 0 2 0 1 1031.1 1031.1 0.0
22/10:00am 17.9 16.5 9.5 58 4.4 N 7 11 4 6 1031.3 1031.3 0.0
22/09:30am 16.5 16.3 9.0 61 3.9 CALM 0 0 0 0 1031.5 1031.5 0.0
22/09:00am 16.8 15.8 10.4 66 3.4 N 6 9 3 5 1031.6 1031.6 0.0
22/08:30am 16.0 15.6 12.4 79 2.0 NE 6 7 3 4 1031.6 1031.6 0.0
22/08:00am 13.3 12.6 11.9 91 0.7 NNE 7 9 4 5 1031.5 1031.5 0.0
22/07:30am 11.1 11.5 11.1 100 0.0 CALM 0 0 0 0 1031.3 1031.3 0.0
22/07:00am 9.1 8.9 9.1 100 0.0 SE 0 0 0 0 1030.9 1030.9 0.0
22/06:30am 6.3 5.5 6.3 100 0.0 CALM 0 0 0 0 1030.6 1030.6 0.0
22/06:00am 5.4 4.4 5.4 100 0.0 CALM 0 0 0 0 1030.1 1030.1 0.0
22/05:30am 4.7 3.1 4.7 100 0.0 SSE 2 9 1 5 1029.8 1029.8 0.0
22/05:00am 5.8 4.8 5.8 100 0.0 CALM 0 0 0 0 1029.3 1029.3 0.0
22/04:30am 5.8 4.8 5.8 100 0.0 CALM 0 0 0 0 1029.1 1029.1 0.0
22/04:00am 5.6 4.6 5.6 100 0.0 CALM 0 0 0 0 1028.9 1028.9 0.0
22/03:30am 6.1 5.2 6.1 100 0.0 CALM 0 0 0 0 1028.7 1028.7 0.0
22/03:00am 6.7 5.6 6.7 100 0.0 ESE 2 6 1 3 1028.7 1028.7 0.0
22/02:30am 6.6 5.8 6.6 100 0.0 CALM 0 0 0 0 1028.9 1028.9 0.0
22/02:00am 6.5 5.7 6.5 100 0.0 CALM 0 0 0 0 1028.9 1028.9 0.0
22/01:30am 7.1 6.4 7.1 100 0.0 CALM 0 0 0 0 1029.3 1029.3 0.0
22/01:00am 7.5 6.9 7.5 100 0.0 CALM 0 0 0 0 1029.5 1029.5 0.0
22/12:30am 7.7 7.2 7.7 100 0.0 CALM 0 0 0 0 1029.6 1029.6 0.0
22/12:00am 7.9 7.4 7.9 100 0.0 SW 0 0 0 0 1029.8 1029.8 0.0
 
Date/Time
EST
Temp
°C
App
Temp
°C
Dew
Point
Rel
Hum
%
Delta-T
°C
Wind Press
QNH
hPa
Press
MSL
hPa
Rain
since 9 am
mm
Dir
 
Spd
km/h
Gust
km/h
Spd
kts
Gust
kts
21/11:30pm 8.2 7.8 8.2 100 0.0 CALM 0 0 0 0 1029.8 1029.8 0.0
21/11:00pm 8.0 6.7 7.7 98 0.1 SW 4 7 2 4 1029.8 1029.8 0.0
21/10:30pm 9.1 8.8 8.8 98 0.1 CALM 0 0 0 0 1029.9 1029.9 0.0
21/10:00pm 9.1 7.7 8.8 98 0.1 SE 6 9 3 5 1029.9 1029.9 0.0
21/09:30pm 9.8 7.9 9.2 96 0.3 SW 9 13 5 7 1029.9 1029.9 0.0
21/09:00pm 9.4 7.4 8.8 96 0.3 WSW 9 11 5 6 1030.0 1030.0 0.0
21/08:30pm 9.2 6.9 7.5 89 0.8 WSW 9 11 5 6 1029.9 1029.9 0.0
21/08:00pm 10.4 8.1 7.5 82 1.4 WSW 9 9 5 5 1029.7 1029.7 0.0
21/07:30pm 11.5 9.8 8.2 80 1.6 SSW 7 9 4 5 1029.4 1029.4 0.0
21/07:00pm 13.1 11.5 8.8 75 2.1 SSE 7 9 4 5 1028.8 1028.8 0.0
21/06:30pm 13.4 11.5 7.6 68 2.9 SE 7 9 4 5 1028.2 1028.2 0.0
21/06:00pm 15.2 12.8 8.7 65 3.3 ESE 11 15 6 8 1027.8 1027.8 0.0
21/05:30pm 16.3 13.5 8.5 60 4.0 ESE 13 17 7 9 1027.4 1027.4 0.0
21/05:00pm 17.4 14.4 9.3 59 4.2 ESE 15 20 8 11 1026.6 1026.5 0.0
21/04:30pm 17.7 14.7 9.1 57 4.5 ESE 15 20 8 11 1026.3 1026.2 0.0
21/04:00pm 18.3 15.1 8.3 52 5.1 ESE 15 20 8 11 1026.0 1025.9 0.0
21/03:30pm 18.8 15.0 9.0 53 5.1 ESE 19 28 10 15 1025.9 1025.8 0.0
21/03:00pm 19.5 16.1 9.1 51 5.5 SE 17 26 9 14 1026.1 1026.0 0.0
21/02:30pm 19.5 16.3 8.5 49 5.7 ESE 15 22 8 12 1026.4 1026.3 0.0
21/02:00pm 19.8 16.7 8.8 49 5.7 SE 15 22 8 12 1026.9 1026.8 0.0
21/01:30pm 20.8 18.6 9.4 48 6.1 SE 11 20 6 11 1027.3 1027.3 0.0
21/01:00pm 18.7 15.1 8.4 51 5.3 SSE 17 26 9 14 1027.7 1027.7 0.0
21/12:30pm 19.1 15.4 7.8 48 5.8 SE 17 28 9 15 1027.9 1027.9 0.0
21/12:00pm 19.1 15.1 8.1 49 5.6 SSE 19 24 10 13 1028.3 1028.3 0.0
21/11:30am 18.6 15.5 7.4 48 5.7 ESE 13 20 7 11 1028.8 1028.8 0.0
21/11:00am 18.4 16.4 8.7 53 5.0 E 9 17 5 9 1029.2 1029.2 0.0
21/10:30am 17.6 15.6 8.5 55 4.7 E 9 15 5 8 1029.3 1029.3 0.0
21/10:00am 16.9 15.3 8.1 56 4.4 SSE 6 13 3 7 1029.3 1029.3 0.0
21/09:30am 16.7 14.9 8.1 57 4.4 ESE 7 17 4 9 1029.4 1029.4 0.0
21/09:00am 16.7 14.9 9.4 62 3.8 SE 9 13 5 7 1029.4 1029.4 0.4
21/08:30am 16.3 14.7 10.2 67 3.2 SE 9 13 5 7 1029.3 1029.3 0.4
21/08:00am 14.5 13.3 9.5 72 2.6 NE 6 9 3 5 1028.9 1028.9 0.4
21/07:30am 13.8 13.3 10.8 82 1.6 NNW 4 9 2 5 1028.9 1028.9 0.4
21/07:00am 11.9 10.9 11.0 94 0.5 N 7 11 4 6 1028.5 1028.5 0.4
21/06:30am 10.1 8.8 10.1 100 0.0 WNW 7 9 4 5 1028.2 1028.2 0.4
21/06:00am 9.0 8.8 9.0 100 0.0 CALM 0 0 0 0 1027.8 1027.8 0.4
21/05:30am 8.4 8.0 8.4 100 0.0 CALM 0 0 0 0 1027.5 1027.5 0.4
21/05:00am 8.9 7.3 8.9 100 0.0 N 7 9 4 5 1026.9 1026.8 0.4
21/04:30am 10.2 10.3 10.0 99 0.1 CALM 0 0 0 0 1026.7 1026.6 0.4
21/04:00am 9.6 8.2 9.6 100 0.0 W 7 11 4 6 1026.4 1026.3 0.4
21/03:30am 9.4 9.3 9.4 100 0.0 CALM 0 6 0 3 1026.8 1026.7 0.4
21/03:00am 7.1 6.4 7.0 99 0.0 CALM 0 0 0 0 1026.6 1026.5 0.0
21/02:30am 8.2 7.8 8.2 100 0.0 CALM 0 0 0 0 1026.8 1026.7 0.0
21/02:00am 8.1 7.7 8.1 100 0.0 CALM 0 0 0 0 1027.0 1026.9 0.0
21/01:30am 6.9 6.2 6.9 100 0.0 CALM 0 0 0 0 1027.2 1027.2 0.0
21/01:00am 6.8 6.0 6.4 97 0.2 CALM 0 0 0 0 1027.3 1027.3 0.0
21/12:30am 7.9 7.3 7.3 96 0.3 CALM 0 0 0 0 1027.2 1027.2 0.0
21/12:00am 8.5 8.0 7.9 96 0.3 CALM 0 0 0 0 1027.5 1027.5 0.0
 
Date/Time
EST
Temp
°C
App
Temp
°C
Dew
Point
Rel
Hum
%
Delta-T
°C
Wind Press
QNH
hPa
Press
MSL
hPa
Rain
since 9 am
mm
Dir
 
Spd
km/h
Gust
km/h
Spd
kts
Gust
kts
20/11:30pm 9.0 8.7 8.7 98 0.1 CALM 0 0 0 0 1027.5 1027.5 0.0
20/11:00pm 8.0 7.5 8.0 100 0.0 CALM 0 0 0 0 1027.5 1027.5 0.0
20/10:30pm 6.5 4.2 5.9 96 0.3 WSW 7 9 4 5 1027.5 1027.5 0.0
20/10:00pm 7.0 5.0 6.4 96 0.3 WSW 6 7 3 4 1027.3 1027.3 0.0
20/09:30pm 7.3 5.3 6.1 92 0.5 SW 6 7 3 4 1027.1 1027.1 0.0
20/09:00pm 8.3 6.4 7.4 94 0.4 WSW 7 9 4 5 1027.1 1027.1 0.0
20/08:30pm 7.5 5.3 6.0 90 0.7 W 7 7 4 4 1026.9 1026.8 0.0
20/08:00pm 8.9 6.7 5.5 79 1.5 W 6 6 3 3 1026.5 1026.4 0.0
20/07:30pm 10.8 8.9 6.9 77 1.9 S 6 7 3 4 1026.1 1026.0 0.0
20/07:00pm 12.6 10.2 6.9 68 2.7 SSE 9 9 5 5 1025.7 1025.6 0.0
20/06:30pm 14.3 11.6 7.4 63 3.4 SE 11 15 6 8 1025.1 1025.0 0.0
20/06:00pm 14.8 11.7 7.4 61 3.6 SE 13 19 7 10 1024.6 1024.5 0.0
20/05:30pm 15.6 11.7 7.1 57 4.2 SE 17 20 9 11 1023.9 1023.8 0.0
20/05:00pm 16.6 12.2 7.3 54 4.6 SE 20 28 11 15 1023.3 1023.2 0.0
20/04:30pm 17.4 13.0 7.2 51 5.1 SE 20 28 11 15 1022.7 1022.6 0.0
20/04:00pm 18.3 13.9 7.4 49 5.5 SSE 20 28 11 15 1022.4 1022.4 0.0
20/03:30pm 19.0 14.5 6.8 45 6.1 SE 20 28 11 15 1022.0 1022.0 0.0
20/03:00pm 19.7 15.7 6.8 43 6.5 SE 17 26 9 14 1021.8 1021.8 0.0
20/02:30pm 20.8 16.6 5.6 37 7.6 SE 17 26 9 14 1021.7 1021.7 0.0
20/02:00pm 19.1 14.7 4.5 38 7.0 SE 17 28 9 15 1021.9 1021.9 0.0
20/01:30pm 19.6 15.2 4.5 37 7.3 SE 17 28 9 15 1021.9 1021.9 0.0
20/01:00pm 18.8 14.8 4.9 40 6.7 ESE 15 20 8 11 1022.1 1022.1 0.0
20/12:30pm 19.0 15.7 4.4 38 7.0 SSE 11 20 6 11 1022.2 1022.2 0.0
20/12:00pm 20.0 18.0 7.1 43 6.5 ENE 7 15 4 8 1022.4 1022.4 0.0
20/11:30am 18.8 15.0 5.6 42 6.5 ESE 15 20 8 11 1022.9 1022.8 0.0
20/11:00am 18.3 15.6 5.8 44 6.1 ESE 9 15 5 8 1023.3 1023.2 0.0
20/10:30am 17.4 15.3 4.0 41 6.3 SE 4 7 2 4 1023.5 1023.4 0.0
20/10:00am 16.4 14.5 4.8 46 5.5 N 4 9 2 5 1023.7 1023.6 0.0
20/09:30am 15.9 13.8 6.6 54 4.6 NNE 7 9 4 5 1023.9 1023.8 0.0
20/09:00am 14.2 12.1 6.6 60 3.7 WNW 7 11 4 6 1023.9 1023.8 0.0
20/08:30am 12.2 10.1 6.5 68 2.7 NNW 7 11 4 6 1024.0 1023.9 0.0
20/08:00am 10.3 8.4 6.8 79 1.6 N 6 9 3 5 1023.8 1023.7 0.0
20/07:30am 7.7 7.0 7.1 96 0.3 CALM 0 0 0 0 1023.5 1023.4 0.0
20/07:00am 6.1 4.8 6.1 100 0.0 ESE 2 6 1 3 1023.0 1022.9 0.0
20/06:30am 2.9 0.2 2.9 100 0.0 ENE 6 7 3 4 1022.6 1022.5 0.0
20/06:00am 2.0 -1.0 2.0 100 0.0 N 7 11 4 6 1021.9 1021.9 0.0
20/05:30am 1.3 -0.5 1.3 100 0.0 CALM 0 0 0 0 1021.6 1021.6 0.0
20/05:00am 2.3 0.7 2.3 100 0.0 CALM 0 0 0 0 1021.1 1021.1 0.0
20/04:30am 2.5 0.9 2.5 100 0.0 CALM 0 0 0 0 1020.6 1020.6 0.0
20/04:00am 2.8 1.3 2.8 100 0.0 CALM 0 0 0 0 1020.5 1020.5 0.0
20/03:30am 2.8 1.3 2.8 100 0.0 CALM 0 0 0 0 1020.4 1020.4 0.0
20/03:00am 3.4 2.0 3.4 100 0.0 CALM 0 0 0 0 1020.4 1020.4 0.0
20/02:30am 3.1 1.6 3.0 99 0.0 CALM 0 0 0 0 1020.6 1020.6 0.0
20/02:00am 3.5 2.1 3.4 99 0.0 CALM 0 0 0 0 1020.6 1020.6 0.0
20/01:30am 3.6 1.4 3.3 98 0.1 N 4 7 2 4 1020.8 1020.8 0.0
20/01:00am 3.6 1.4 3.3 98 0.1 WSW 4 7 2 4 1020.9 1020.9 0.0
20/12:30am 4.2 2.9 3.9 98 0.1 CALM 0 0 0 0 1020.9 1020.9 0.0
20/12:00am 4.2 1.7 3.8 97 0.2 SW 6 11 3 6 1020.9 1020.9 0.0
 
Date/Time
EST
Temp
°C
App
Temp
°C
Dew
Point
Rel
Hum
%
Delta-T
°C
Wind Press
QNH
hPa
Press
MSL
hPa
Rain
since 9 am
mm
Dir
 
Spd
km/h
Gust
km/h
Spd
kts
Gust
kts
19/11:30pm 4.4 2.7 3.8 96 0.3 SW 2 7 1 4 1021.1 1021.1 0.0
19/11:00pm 4.7 3.3 3.7 93 0.4 CALM 0 0 0 0 1021.1 1021.1 0.0
19/10:30pm 5.5 4.0 3.0 84 1.0 CALM 0 0 0 0 1021.3 1021.3 0.0
19/10:00pm 6.9 4.5 5.1 88 0.8 SSE 7 9 4 5 1021.2 1021.2 0.0
19/09:30pm 6.8 3.8 3.9 82 1.2 SW 9 11 5 6 1021.0 1021.0 0.0
19/09:00pm 6.5 3.6 2.8 77 1.5 SW 7 9 4 5 1021.0 1021.0 0.0
19/08:30pm 8.0 4.6 3.8 75 1.8 WSW 11 13 6 7 1020.7 1020.7 0.0
19/08:00pm 8.9 5.1 4.1 72 2.1 WSW 13 15 7 8 1020.5 1020.5 0.0
19/07:30pm 8.3 6.2 4.1 75 1.8 W 4 7 2 4 1020.2 1020.2 0.0
19/07:00pm 9.3 7.7 4.3 71 2.2 WSW 2 7 1 4 1019.8 1019.8 0.0
19/06:30pm 11.3 9.4 4.7 64 3.0 W 4 7 2 4 1019.4 1019.4 0.0
19/06:00pm 14.3 12.8 2.9 46 5.1 CALM 0 0 0 0 1019.0 1019.0 0.0
19/05:30pm 16.5 13.8 3.6 42 6.0 NNE 7 9 4 5 1018.6 1018.6 0.0
19/05:00pm 17.7 14.4 2.5 36 6.9 NNE 9 11 5 6 1018.4 1018.4 0.0
19/04:30pm 18.2 15.1 1.3 32 7.6 N 7 11 4 6 1018.2 1018.2 0.0
19/04:00pm 18.6 15.1 1.2 31 7.8 NNW 9 15 5 8 1018.2 1018.2 0.0
19/03:30pm 18.6 14.9 0.2 29 8.1 N 9 19 5 10 1018.2 1018.2 0.0
19/03:00pm 18.5 15.2 2.4 34 7.4 NNE 9 17 5 9 1018.3 1018.3 0.0
19/02:30pm 18.3 15.0 0.0 29 8.0 E 7 17 4 9 1018.4 1018.4 0.0
19/02:00pm 18.4 15.3 0.1 29 8.0 WNW 6 11 3 6 1018.5 1018.5 0.0
19/01:30pm 18.4 15.7 0.1 29 8.0 NW 4 11 2 6 1018.7 1018.7 0.0
19/01:00pm 18.1 14.4 -0.2 29 7.9 NNW 9 13 5 7 1019.1 1019.1 0.0
19/12:30pm 17.7 14.2 1.2 33 7.3 ENE 9 13 5 7 1019.5 1019.5 0.0
19/12:00pm 17.5 14.4 3.4 39 6.5 NE 9 11 5 6 1019.8 1019.8 0.0

Other Formats:

Comma delimited format used in spreadsheet applications
http://www.bom.gov.au/fwo/IDN60801/IDN60801.95771.axf

JavaScript Object Notation format (JSON) in row-major order
http://www.bom.gov.au/fwo/IDN60801/IDN60801.95771.json